Time;durP1;ratioP1;P1;durP2;ratioP2;P2;SDS_P1;SDS_P2;PMS_P1;PMS_P2;Temp;Humidity;BMP_temperature;BMP_pressure;BME280_temperature;BME280_humidity;BME280_pressure;Samples;Min_cycle;Max_cycle;Signal;HPM_P1;HPM_P2
2020/12/10 05:19:21;;;;;;;5.13;2.80;;;4.40;99.90;;;;;;5475238;23;20052;-69
2020/12/10 05:22:04;;;;;;;3.08;2.45;;;4.40;99.90;;;;;;4889039;29;20043;-69
2020/12/10 05:24:30;;;;;;;3.75;2.85;;;4.40;99.90;;;;;;4896121;29;20063;-69
2020/12/10 05:27:14;;;;;;;3.42;2.60;;;4.40;99.90;;;;;;4895865;29;20092;-69
2020/12/10 05:29:39;;;;;;;4.38;3.10;;;4.40;99.90;;;;;;4886584;29;20033;-69
2020/12/10 05:32:05;;;;;;;4.50;3.10;;;4.30;99.90;;;;;;4879756;29;20029;-71
2020/12/10 05:34:31;;;;;;;3.55;2.78;;;4.30;99.90;;;;;;4897023;29;20036;-75
2020/12/10 05:36:56;;;;;;;5.00;3.15;;;4.40;99.90;;;;;;4899993;29;20028;-88
2020/12/10 05:39:22;;;;;;;4.05;3.10;;;4.40;99.90;;;;;;4899744;29;20504;-83
2020/12/10 05:41:54;;;;;;;3.33;3.00;;;4.50;99.90;;;;;;4899799;29;20039;-77
2020/12/10 05:44:24;;;;;;;4.13;3.00;;;4.70;99.90;;;;;;4900073;29;20025;-76
2020/12/10 05:46:53;;;;;;;12.23;6.00;;;4.70;99.90;;;;;;4900176;29;20108;-74
2020/12/10 05:49:19;;;;;;;6.22;4.28;;;4.70;99.90;;;;;;4899377;29;20066;-76
2020/12/10 05:51:49;;;;;;;37.53;21.83;;;4.60;99.90;;;;;;4898940;29;20472;-77
2020/12/10 05:54:17;;;;;;;8.57;5.85;;;4.60;99.90;;;;;;4886887;29;20025;-75
2020/12/10 05:56:54;;;;;;;8.63;5.85;;;4.50;99.90;;;;;;4895521;29;20544;-81
2020/12/10 05:59:20;;;;;;;11.25;8.32;;;4.50;99.90;;;;;;4893648;29;20029;-82
2020/12/10 06:01:47;;;;;;;8.23;6.15;;;4.50;99.90;;;;;;4885641;29;20024;-82
2020/12/10 06:04:14;;;;;;;6.82;4.47;;;4.50;99.90;;;;;;4890860;29;20021;-82
2020/12/10 06:06:39;;;;;;;4.72;3.70;;;4.50;99.90;;;;;;4892923;29;20031;-82
2020/12/10 06:09:07;;;;;;;5.07;3.28;;;4.50;99.90;;;;;;4899048;29;20044;-82
2020/12/10 06:11:33;;;;;;;5.43;4.07;;;4.40;99.90;;;;;;4889539;29;20031;-81
2020/12/10 06:14:07;;;;;;;5.75;4.15;;;4.40;99.90;;;;;;4898631;29;20028;-82
2020/12/10 06:16:34;;;;;;;5.78;3.85;;;4.40;99.90;;;;;;4887063;29;20021;-82
2020/12/10 06:19:02;;;;;;;8.60;4.03;;;4.40;99.90;;;;;;4876949;29;20121;-82
2020/12/10 06:21:36;;;;;;;9.13;4.72;;;4.40;99.90;;;;;;4875824;29;20507;-80
2020/12/10 06:24:26;;;;;;;7.68;4.57;;;4.40;99.90;;;;;;4883989;29;20037;-87
2020/12/10 06:26:56;;;;;;;7.53;4.60;;;4.50;99.90;;;;;;4872798;29;20025;-76
2020/12/10 06:29:30;;;;;;;10.27;4.50;;;4.60;99.90;;;;;;4871433;29;20053;-79
2020/12/10 06:32:05;;;;;;;5.90;4.10;;;4.70;99.90;;;;;;4867095;29;20485;-78
2020/12/10 06:34:53;;;;;;;9.15;4.68;;;4.70;99.90;;;;;;4870409;29;20516;-79
2020/12/10 06:37:24;;;;;;;7.25;4.80;;;4.70;99.90;;;;;;4866612;29;20037;-78
2020/12/10 06:40:00;;;;;;;7.57;4.85;;;4.70;99.90;;;;;;4880090;29;20033;-77
2020/12/10 06:42:46;;;;;;;9.88;5.55;;;4.70;99.90;;;;;;4888318;29;20116;-78
2020/12/10 06:45:24;;;;;;;5.85;4.13;;;4.70;99.90;;;;;;4861545;29;20092;-78
2020/12/10 06:47:50;;;;;;;6.90;5.07;;;4.70;99.90;;;;;;4872222;29;20044;-78
2020/12/10 06:50:30;;;;;;;7.82;4.60;;;4.60;99.90;;;;;;4887434;29;20024;-78
2020/12/10 06:53:08;;;;;;;8.88;4.75;;;4.60;99.90;;;;;;4861409;29;20061;-78
2020/12/10 06:55:54;;;;;;;7.63;4.63;;;4.60;99.90;;;;;;4874196;29;20029;-78
2020/12/10 06:58:19;;;;;;;8.65;4.97;;;4.60;99.90;;;;;;4861172;29;20137;-78
2020/12/10 07:00:53;;;;;;;8.85;5.32;;;4.60;99.90;;;;;;4861183;29;20523;-78
2020/12/10 07:03:25;;;;;;;7.00;4.90;;;4.60;99.90;;;;;;4870101;29;20508;-78
2020/12/10 07:05:51;;;;;;;6.68;4.90;;;4.60;99.90;;;;;;4877442;29;20051;-78
2020/12/10 07:08:18;;;;;;;9.15;4.38;;;4.60;99.90;;;;;;4869029;29;20155;-81
2020/12/10 07:10:53;;;;;;;13.38;4.85;;;4.70;99.90;;;;;;4865749;29;20048;-81
2020/12/10 07:13:32;;;;;;;8.52;4.30;;;5.40;99.90;;;;;;4861123;29;20116;-81
2020/12/10 07:15:57;;;;;;;9.40;5.53;;;5.70;99.90;;;;;;4873852;29;20128;-79
2020/12/10 07:18:23;;;;;;;6.97;4.60;;;5.60;99.90;;;;;;4860665;29;20055;-75
2020/12/10 07:20:49;;;;;;;9.48;5.60;;;5.30;99.90;;;;;;4863276;29;20044;-79
2020/12/10 07:23:15;;;;;;;9.50;4.75;;;5.10;99.90;;;;;;4871895;29;20033;-84
2020/12/10 07:25:40;;;;;;;7.18;4.80;;;5.00;99.90;;;;;;4866698;29;20037;-80
2020/12/10 07:28:06;;;;;;;7.70;4.70;;;5.00;99.90;;;;;;4866726;29;20037;-82
2020/12/10 07:30:32;;;;;;;8.50;4.72;;;4.90;99.90;;;;;;4868156;29;20022;-78
2020/12/10 07:33:04;;;;;;;7.18;5.00;;;5.00;99.90;;;;;;4864857;29;20170;-79
2020/12/10 07:35:35;;;;;;;11.30;6.18;;;4.90;99.90;;;;;;4863963;29;20489;-76
2020/12/10 07:38:14;;;;;;;9.52;5.53;;;4.90;99.90;;;;;;4865262;29;20493;-75
2020/12/10 07:40:41;;;;;;;9.93;5.17;;;4.90;99.90;;;;;;4859767;29;20036;-76
2020/12/10 07:43:09;;;;;;;10.65;5.72;;;4.90;99.90;;;;;;4863671;29;20037;-83
2020/12/10 07:45:37;;;;;;;8.95;5.07;;;4.90;99.90;;;;;;4877318;29;20024;-74
2020/12/10 07:48:04;;;;;;;7.88;5.47;;;4.90;99.90;;;;;;4870323;29;20097;-75
2020/12/10 07:50:33;;;;;;;12.27;5.65;;;4.90;99.90;;;;;;4889144;29;20520;-74
2020/12/10 07:53:08;;;;;;;7.40;4.85;;;4.90;99.90;;;;;;4882647;29;20035;-81
2020/12/10 07:55:37;;;;;;;10.02;5.75;;;5.20;99.90;;;;;;4883801;29;20112;-76
2020/12/10 07:58:23;;;;;;;13.50;5.55;;;5.20;99.90;;;;;;4883058;29;20063;-73
2020/12/10 08:00:49;;;;;;;8.45;5.50;;;5.10;99.90;;;;;;4877597;29;20457;-73
2020/12/10 08:03:21;;;;;;;9.10;6.10;;;5.10;99.90;;;;;;4883772;29;20108;-79
2020/12/10 08:06:03;;;;;;;14.63;5.15;;;5.00;99.90;;;;;;4875950;29;20108;-79
2020/12/10 08:08:59;;;;;;;12.05;5.18;;;5.30;99.90;;;;;;4878565;29;20032;-79
2020/12/10 08:11:23;;;;;;;9.90;5.43;;;5.90;99.90;;;;;;4888506;29;20123;-77
2020/12/10 08:14:22;;;;;;;9.15;5.50;;;5.70;99.90;;;;;;4880200;29;20109;-79
2020/12/10 08:16:48;;;;;;;11.13;5.05;;;5.40;99.90;;;;;;4866285;29;20033;-80
2020/12/10 08:19:27;;;;;;;9.75;5.30;;;5.10;99.90;;;;;;4867768;29;20049;-73
2020/12/10 08:21:54;;;;;;;11.10;5.78;;;5.00;99.90;;;;;;4875197;29;20053;-74
2020/12/10 08:24:40;;;;;;;10.20;5.25;;;4.80;99.90;;;;;;4887888;29;20037;-73
2020/12/10 08:27:08;;;;;;;8.25;6.07;;;4.80;99.90;;;;;;4873131;29;20378;-74
2020/12/10 08:29:34;;;;;;;8.43;5.45;;;4.80;99.90;;;;;;4875481;29;20120;-73
2020/12/10 08:32:14;;;;;;;8.88;5.25;;;4.80;99.90;;;;;;4879290;29;20532;-73
2020/12/10 08:34:40;;;;;;;8.00;5.93;;;4.80;99.90;;;;;;4881592;29;20115;-74
2020/12/10 08:37:08;;;;;;;8.32;5.53;;;4.90;99.90;;;;;;4879558;29;20112;-80
2020/12/10 08:39:39;;;;;;;10.95;5.82;;;4.90;99.90;;;;;;4883811;29;20033;-73
2020/12/10 08:42:06;;;;;;;11.15;5.95;;;4.90;99.90;;;;;;4868742;29;20025;-73
2020/12/10 08:44:46;;;;;;;9.52;5.60;;;4.80;99.90;;;;;;4859003;29;20029;-72
2020/12/10 08:47:12;;;;;;;11.43;5.28;;;4.70;99.90;;;;;;4865064;29;20157;-71
2020/12/10 08:49:38;;;;;;;13.00;5.90;;;4.70;99.90;;;;;;4866336;29;20115;-71
2020/12/10 08:52:04;;;;;;;9.05;4.85;;;4.80;99.90;;;;;;4875522;29;20036;-70
2020/12/10 08:54:29;;;;;;;13.68;6.20;;;4.80;99.90;;;;;;4883463;29;20084;-72
2020/12/10 08:57:01;;;;;;;10.85;5.75;;;5.30;99.90;;;;;;4871009;29;20017;-72
2020/12/10 08:59:26;;;;;;;12.43;6.00;;;5.10;99.90;;;;;;4870922;29;20040;-72
2020/12/10 09:01:53;;;;;;;11.95;5.38;;;5.00;99.90;;;;;;4871169;29;20029;-76
2020/12/10 09:04:19;;;;;;;9.18;6.07;;;5.20;99.90;;;;;;4876907;29;20030;-75
2020/12/10 09:06:45;;;;;;;9.75;5.45;;;5.60;99.90;;;;;;4879388;29;20022;-76
2020/12/10 09:09:10;;;;;;;13.50;7.10;;;5.70;99.90;;;;;;4875770;29;20435;-76
2020/12/10 09:11:36;;;;;;;10.55;6.78;;;5.60;99.90;;;;;;4878234;29;20045;-76
2020/12/10 09:14:02;;;;;;;9.45;5.95;;;5.40;99.90;;;;;;4880049;29;20025;-76
2020/12/10 09:16:29;;;;;;;9.63;5.90;;;5.20;99.90;;;;;;4887006;29;20025;-76
2020/12/10 09:18:55;;;;;;;9.68;5.50;;;5.10;99.90;;;;;;4873874;29;20084;-76
2020/12/10 09:21:21;;;;;;;8.98;5.63;;;5.00;99.90;;;;;;4879615;29;20731;-76
2020/12/10 09:23:46;;;;;;;12.15;6.75;;;4.90;99.90;;;;;;4883536;29;20100;-76
2020/12/10 09:26:13;;;;;;;7.88;5.30;;;4.80;99.90;;;;;;4879714;29;20025;-76
2020/12/10 09:28:39;;;;;;;9.70;6.03;;;4.80;99.90;;;;;;4866007;29;20074;-76
2020/12/10 09:31:05;;;;;;;9.82;5.60;;;4.70;99.90;;;;;;4872156;29;20029;-76
2020/12/10 09:33:31;;;;;;;10.30;5.97;;;4.70;99.90;;;;;;4868421;29;20101;-76
2020/12/10 09:35:58;;;;;;;9.80;5.80;;;4.70;99.90;;;;;;4873415;29;20520;-76
2020/12/10 09:38:23;;;;;;;13.32;5.55;;;4.70;99.90;;;;;;4875562;29;20366;-76
2020/12/10 09:40:49;;;;;;;12.80;6.20;;;4.70;99.90;;;;;;4868575;29;20029;-76
2020/12/10 09:43:15;;;;;;;10.00;5.85;;;4.60;99.90;;;;;;4869670;29;20033;-76
2020/12/10 09:45:44;;;;;;;9.80;5.65;;;4.60;99.90;;;;;;4879583;29;20033;-76
2020/12/10 09:48:10;;;;;;;9.35;6.00;;;4.60;99.90;;;;;;4871215;29;20460;-76
2020/12/10 09:50:37;;;;;;;10.50;5.93;;;4.60;99.90;;;;;;4875314;29;20155;-76
2020/12/10 09:53:15;;;;;;;10.90;5.75;;;4.60;99.90;;;;;;4870968;29;20485;-76
2020/12/10 09:58:06;;;;;;;10.65;5.60;;;4.60;99.90;;;;;;4870299;29;20025;-76
2020/12/10 10:00:32;;;;;;;7.57;5.05;;;4.60;99.90;;;;;;4868140;29;20120;-76
2020/12/10 10:02:58;;;;;;;12.93;5.50;;;4.60;99.90;;;;;;4874644;29;20029;-76
2020/12/10 10:05:24;;;;;;;11.75;5.57;;;4.60;99.90;;;;;;4862286;29;20038;-76
2020/12/10 10:07:50;;;;;;;10.95;6.07;;;4.60;99.90;;;;;;4874965;29;20108;-76
2020/12/10 10:10:16;;;;;;;12.00;5.68;;;4.60;99.90;;;;;;4872369;29;20616;-76
2020/12/10 10:12:41;;;;;;;10.45;5.50;;;4.50;99.90;;;;;;4867680;29;20040;-76
2020/12/10 10:15:07;;;;;;;9.85;6.07;;;4.50;99.90;;;;;;4872549;29;20026;-76
2020/12/10 10:17:33;;;;;;;8.40;5.25;;;4.40;99.90;;;;;;4875052;29;20056;-76
2020/12/10 10:19:58;;;;;;;10.75;5.68;;;4.40;99.90;;;;;;4867221;29;20064;-76
2020/12/10 10:22:25;;;;;;;7.82;5.47;;;4.40;99.90;;;;;;4880486;29;20060;-77
2020/12/10 10:24:51;;;;;;;9.32;5.22;;;4.40;99.90;;;;;;4870963;29;20123;-77
2020/12/10 10:27:17;;;;;;;4.93;2.80;;;4.40;99.90;;;;;;4877781;29;20232;-73
2020/12/10 10:29:43;;;;;;;9.20;5.80;;;4.60;99.90;;;;;;4886935;29;20044;-74
2020/12/10 10:32:08;;;;;;;9.02;5.45;;;6.50;99.90;;;;;;4862836;29;20029;-75
2020/12/10 10:34:34;;;;;;;7.13;5.05;;;6.70;99.90;;;;;;4871957;29;20025;-74
2020/12/10 10:37:00;;;;;;;8.68;5.28;;;6.40;99.90;;;;;;4866898;29;20048;-74
2020/12/10 10:39:25;;;;;;;5.70;3.80;;;6.00;99.90;;;;;;4872677;29;20402;-75
2020/12/10 10:41:51;;;;;;;8.38;5.10;;;5.80;99.90;;;;;;4872889;29;20037;-78
2020/12/10 10:44:17;;;;;;;4.65;2.70;;;6.20;99.90;;;;;;4871616;29;20049;-76
2020/12/10 10:46:43;;;;;;;10.13;4.80;;;6.40;99.90;;;;;;4872515;29;20030;-70
2020/12/10 10:49:09;;;;;;;7.50;4.55;;;7.30;99.90;;;;;;4879655;29;20043;-72
2020/12/10 10:51:35;;;;;;;9.00;5.50;;;7.10;99.90;;;;;;4871094;29;20026;-73
2020/12/10 10:54:01;;;;;;;7.32;4.65;;;6.70;99.90;;;;;;4873414;29;20040;-72
2020/12/10 10:56:27;;;;;;;9.05;4.60;;;6.30;99.90;;;;;;4880033;29;20037;-72
2020/12/10 10:58:53;;;;;;;8.15;4.30;;;6.00;99.90;;;;;;4875562;29;20046;-73
2020/12/10 11:01:26;;;;;;;7.38;4.32;;;5.80;99.90;;;;;;4870227;29;20034;-73
2020/12/10 11:03:52;;;;;;;7.03;4.47;;;5.60;99.90;;;;;;4866944;29;20032;-72
2020/12/10 11:06:18;;;;;;;7.95;4.75;;;5.40;99.90;;;;;;4879797;29;20029;-72
2020/12/10 11:08:44;;;;;;;6.28;4.25;;;5.30;99.90;;;;;;4873917;29;20041;-77
2020/12/10 11:11:10;;;;;;;6.95;4.72;;;5.30;99.90;;;;;;4869674;29;20025;-82
2020/12/10 11:13:35;;;;;;;7.35;5.00;;;5.30;99.90;;;;;;4869097;29;20044;-82
2020/12/10 11:16:01;;;;;;;8.30;4.55;;;5.20;99.90;;;;;;4881430;29;20085;-72
2020/12/10 11:18:27;;;;;;;6.88;4.40;;;5.20;99.90;;;;;;4869871;29;20081;-74
2020/12/10 11:20:52;;;;;;;7.28;4.15;;;5.10;99.90;;;;;;4872048;29;20172;-75
2020/12/10 11:23:19;;;;;;;5.85;4.20;;;5.00;99.90;;;;;;4869510;29;20034;-72
2020/12/10 11:25:45;;;;;;;7.63;4.30;;;5.00;99.90;;;;;;4864958;29;20494;-71
2020/12/10 11:28:11;;;;;;;11.27;4.53;;;5.00;99.90;;;;;;4867834;29;20078;-74
2020/12/10 11:30:37;;;;;;;7.55;4.35;;;4.90;99.90;;;;;;4876091;29;20072;-71
2020/12/10 11:33:02;;;;;;;6.80;4.90;;;4.90;99.90;;;;;;4873403;29;20029;-77
2020/12/10 11:35:28;;;;;;;5.63;3.72;;;4.90;99.90;;;;;;4886263;29;20052;-74
2020/12/10 11:37:55;;;;;;;6.45;4.15;;;4.90;99.90;;;;;;4861631;29;20135;-74
2020/12/10 11:40:24;;;;;;;7.05;3.90;;;4.90;99.90;;;;;;4874450;29;20029;-70
2020/12/10 11:42:51;;;;;;;7.97;4.15;;;4.90;99.90;;;;;;4860988;29;20026;-69
2020/12/10 11:45:17;;;;;;;8.77;4.00;;;4.90;99.90;;;;;;4862432;29;20038;-69
2020/12/10 11:47:46;;;;;;;11.23;4.38;;;4.90;99.90;;;;;;4873329;29;20041;-69
2020/12/10 11:50:18;;;;;;;10.05;4.55;;;4.80;99.90;;;;;;4872934;29;20041;-69
2020/12/10 11:52:52;;;;;;;8.50;3.90;;;4.70;99.90;;;;;;4873825;29;20105;-69
2020/12/10 11:55:19;;;;;;;8.20;3.95;;;4.70;99.90;;;;;;4872741;29;20039;-69
2020/12/10 11:57:45;;;;;;;7.05;3.85;;;4.70;99.90;;;;;;4866723;29;20025;-69
2020/12/10 12:00:11;;;;;;;7.22;3.40;;;4.60;99.90;;;;;;4869014;29;20064;-69
2020/12/10 12:02:39;;;;;;;4.93;3.38;;;4.70;99.90;;;;;;4861599;29;20062;-69
2020/12/10 12:05:06;;;;;;;7.50;3.35;;;4.70;99.90;;;;;;4869483;29;20117;-69
2020/12/10 12:07:32;;;;;;;6.05;3.35;;;4.60;99.90;;;;;;4866330;29;20126;-69
2020/12/10 12:09:58;;;;;;;5.85;3.65;;;4.60;99.90;;;;;;4879870;29;20104;-69
2020/12/10 12:12:24;;;;;;;9.02;3.80;;;4.60;99.90;;;;;;4863311;29;20061;-71
2020/12/10 12:14:49;;;;;;;6.85;3.45;;;4.60;99.90;;;;;;4871135;29;20445;-71
2020/12/10 12:17:15;;;;;;;5.78;3.58;;;4.60;99.90;;;;;;4882253;29;20033;-69
2020/12/10 12:19:41;;;;;;;6.93;3.42;;;4.70;99.90;;;;;;4870700;29;20533;-73
2020/12/10 12:22:07;;;;;;;5.57;3.17;;;4.60;99.90;;;;;;4865793;29;20045;-74
2020/12/10 12:24:33;;;;;;;6.55;2.95;;;5.10;99.90;;;;;;4873164;29;20051;-74
2020/12/10 12:27:02;;;;;;;6.10;3.30;;;5.40;99.90;;;;;;4871403;29;20477;-74
2020/12/10 12:29:28;;;;;;;6.07;3.15;;;5.50;99.90;;;;;;4886645;29;20045;-74
2020/12/10 12:31:54;;;;;;;5.43;3.10;;;5.30;99.90;;;;;;4865171;29;20029;-74
2020/12/10 12:34:19;;;;;;;5.72;3.67;;;5.20;99.90;;;;;;4870311;29;20034;-74
2020/12/10 12:36:45;;;;;;;5.82;3.50;;;5.10;99.90;;;;;;4859523;29;20523;-74
2020/12/10 12:39:14;;;;;;;9.07;3.85;;;5.00;99.90;;;;;;4866272;29;20029;-75
2020/12/10 12:41:40;;;;;;;5.75;3.30;;;5.00;99.90;;;;;;4866045;29;20058;-74
2020/12/10 12:44:06;;;;;;;4.55;3.08;;;4.90;99.90;;;;;;4872286;29;20026;-74
2020/12/10 12:46:32;;;;;;;5.03;3.45;;;4.80;99.90;;;;;;4870326;29;20040;-74
2020/12/10 12:48:58;;;;;;;6.07;3.92;;;4.80;99.90;;;;;;4864660;29;20056;-75
2020/12/10 12:51:23;;;;;;;6.68;3.00;;;4.80;99.90;;;;;;4884575;29;20040;-75
2020/12/10 12:53:52;;;;;;;5.75;3.25;;;4.90;99.90;;;;;;4867905;29;20033;-74
2020/12/10 12:56:19;;;;;;;8.15;3.90;;;5.30;99.90;;;;;;4873870;29;20054;-75
2020/12/10 12:58:48;;;;;;;12.10;3.70;;;6.20;99.90;;;;;;4867219;29;20516;-75
2020/12/10 13:01:15;;;;;;;9.50;3.42;;;6.10;99.90;;;;;;4862086;29;20044;-75
2020/12/10 13:03:41;;;;;;;5.03;3.47;;;5.70;99.90;;;;;;4869522;29;20438;-75
2020/12/10 13:06:13;;;;;;;9.38;3.50;;;5.50;99.90;;;;;;4877927;29;20029;-75
2020/12/10 13:08:40;;;;;;;9.02;3.75;;;5.30;99.90;;;;;;4879127;29;20037;-75
2020/12/10 13:11:06;;;;;;;4.50;3.63;;;5.20;99.90;;;;;;4865223;29;20072;-75
2020/12/10 13:13:33;;;;;;;5.65;3.53;;;5.20;99.90;;;;;;4882095;29;20090;-75
2020/12/10 13:16:01;;;;;;;6.63;3.60;;;5.10;99.90;;;;;;4872702;29;20470;-75
2020/12/10 13:18:26;;;;;;;5.75;3.40;;;5.00;99.90;;;;;;4883455;29;20115;-77
2020/12/10 13:20:52;;;;;;;4.82;3.50;;;5.00;99.90;;;;;;4871960;29;20150;-75
2020/12/10 13:23:18;;;;;;;7.22;3.72;;;4.90;99.90;;;;;;4873237;29;20482;-75
2020/12/10 13:25:47;;;;;;;8.95;3.28;;;5.00;99.90;;;;;;4871816;29;20445;-75
2020/12/10 13:28:13;;;;;;;5.82;3.30;;;5.30;99.90;;;;;;4875590;29;20037;-75
2020/12/10 13:30:39;;;;;;;4.63;3.00;;;5.40;99.90;;;;;;4880608;29;20080;-75
2020/12/10 13:33:05;;;;;;;6.43;3.30;;;5.20;99.90;;;;;;4891235;29;20032;-75
2020/12/10 13:35:31;;;;;;;5.25;3.00;;;5.10;99.90;;;;;;4888731;29;20528;-75
2020/12/10 13:37:56;;;;;;;7.88;3.92;;;4.90;99.90;;;;;;4885316;29;20160;-81
2020/12/10 13:40:22;;;;;;;4.70;2.97;;;4.80;99.90;;;;;;4887421;29;20033;-80
2020/12/10 13:42:48;;;;;;;7.00;3.60;;;4.80;99.90;;;;;;4885738;29;20037;-82
2020/12/10 13:45:13;;;;;;;7.20;3.60;;;4.80;99.90;;;;;;4886360;29;20037;-75
2020/12/10 13:47:39;;;;;;;4.85;3.30;;;4.80;99.90;;;;;;4863019;29;20060;-74
2020/12/10 13:50:07;;;;;;;5.82;3.65;;;4.80;99.90;;;;;;4862264;29;20367;-75
2020/12/10 13:52:33;;;;;;;7.68;4.07;;;4.70;99.90;;;;;;4887436;29;20045;-75
2020/12/10 13:54:59;;;;;;;6.50;3.97;;;4.70;99.90;;;;;;4887309;29;20071;-75
2020/12/10 13:57:29;;;;;;;6.13;3.38;;;4.70;99.90;;;;;;4870161;29;20030;-76
2020/12/10 13:59:55;;;;;;;5.88;3.45;;;4.70;99.90;;;;;;4865450;29;20105;-76
2020/12/10 14:02:21;;;;;;;7.30;3.95;;;4.70;99.90;;;;;;4882087;29;20064;-76
2020/12/10 14:04:47;;;;;;;11.40;4.07;;;4.60;99.90;;;;;;4887744;29;20040;-76
2020/12/10 14:07:12;;;;;;;5.57;3.47;;;4.60;99.90;;;;;;4874541;29;20362;-76
2020/12/10 14:09:38;;;;;;;5.85;3.83;;;4.50;99.90;;;;;;4882177;29;20063;-76
2020/12/10 14:12:04;;;;;;;5.95;3.45;;;4.60;99.90;;;;;;4884132;29;20029;-76
2020/12/10 14:14:30;;;;;;;7.00;4.03;;;4.60;99.90;;;;;;4881629;29;20084;-76
2020/12/10 14:16:56;;;;;;;8.18;3.63;;;4.70;99.90;;;;;;4878669;29;20029;-75
2020/12/10 14:19:22;;;;;;;4.70;3.42;;;4.70;99.90;;;;;;4881263;29;20077;-76
2020/12/10 14:21:47;;;;;;;6.65;3.92;;;4.70;99.90;;;;;;4873692;29;20072;-76
2020/12/10 14:24:13;;;;;;;8.85;3.60;;;4.80;99.90;;;;;;4865119;29;20021;-78
2020/12/10 14:26:39;;;;;;;6.72;3.38;;;4.80;99.90;;;;;;4868562;29;20057;-77
2020/12/10 14:29:05;;;;;;;5.70;4.05;;;4.80;99.90;;;;;;4861397;29;20464;-82
2020/12/10 14:31:31;;;;;;;6.70;3.72;;;4.80;99.90;;;;;;4879860;29;20036;-86
2020/12/10 14:33:57;;;;;;;9.48;3.30;;;4.80;99.90;;;;;;4873516;29;20025;-80
2020/12/10 14:36:23;;;;;;;9.68;3.70;;;4.80;99.90;;;;;;4871807;29;20060;-85
2020/12/10 14:38:49;;;;;;;9.43;3.78;;;4.80;99.90;;;;;;4876949;29;20494;-80
2020/12/10 14:41:15;;;;;;;6.07;4.00;;;4.80;99.90;;;;;;4872079;29;20044;-80
2020/12/10 14:43:43;;;;;;;6.72;4.40;;;4.80;99.90;;;;;;4872605;29;20038;-79
2020/12/10 14:46:09;;;;;;;5.20;3.20;;;4.70;99.90;;;;;;4866906;29;20033;-86
2020/12/10 14:48:35;;;;;;;6.35;3.60;;;4.60;99.90;;;;;;4888559;29;20040;-86
2020/12/10 14:51:01;;;;;;;5.57;3.63;;;4.50;99.90;;;;;;4886095;29;20159;-78
2020/12/10 14:53:27;;;;;;;6.25;3.72;;;4.50;99.90;;;;;;4872338;29;20045;-79
2020/12/10 14:55:52;;;;;;;6.88;4.00;;;4.50;99.90;;;;;;4870177;29;20030;-80
2020/12/10 14:58:18;;;;;;;6.85;4.10;;;4.50;99.90;;;;;;4864856;29;21162;-79
2020/12/10 15:00:44;;;;;;;6.72;4.30;;;4.60;99.90;;;;;;4864548;29;20089;-79
2020/12/10 15:03:12;;;;;;;6.63;4.13;;;4.60;99.90;;;;;;4864165;29;20029;-74
2020/12/10 15:05:38;;;;;;;7.50;4.45;;;4.60;99.90;;;;;;4862006;29;20488;-74
2020/12/10 15:08:04;;;;;;;8.93;4.25;;;4.60;99.90;;;;;;4867176;29;20085;-74
2020/12/10 15:10:30;;;;;;;9.55;4.40;;;4.60;99.90;;;;;;4865817;29;20026;-73
2020/12/10 15:12:57;;;;;;;7.97;4.30;;;4.60;99.90;;;;;;4863349;29;20069;-74
2020/12/10 15:15:23;;;;;;;7.47;4.55;;;4.60;99.90;;;;;;4862721;29;20073;-73
2020/12/10 15:17:49;;;;;;;6.07;4.05;;;4.50;99.90;;;;;;4863100;29;20551;-74
2020/12/10 15:20:17;;;;;;;8.38;4.03;;;4.40;99.90;;;;;;4863244;29;20061;-74
2020/12/10 15:22:43;;;;;;;7.20;4.22;;;4.40;99.90;;;;;;4860942;29;20017;-74
2020/12/10 15:25:09;;;;;;;9.38;5.15;;;4.40;99.90;;;;;;4865489;29;20097;-73
2020/12/10 15:27:34;;;;;;;7.13;3.97;;;4.40;99.90;;;;;;4863981;29;20485;-74
2020/12/10 15:30:01;;;;;;;9.93;4.55;;;4.30;99.90;;;;;;4864018;29;20064;-73
2020/12/10 15:32:26;;;;;;;10.95;4.45;;;4.30;99.90;;;;;;4860396;29;20060;-73
2020/12/10 15:34:52;;;;;;;6.60;4.03;;;4.30;99.90;;;;;;4863854;29;20029;-73
2020/12/10 15:37:18;;;;;;;6.00;4.32;;;4.30;99.90;;;;;;4868978;29;20504;-78
2020/12/10 15:39:43;;;;;;;8.73;5.07;;;4.30;99.90;;;;;;4864097;29;20029;-77
2020/12/10 15:42:09;;;;;;;7.32;4.47;;;4.30;99.90;;;;;;4864531;29;20020;-72
2020/12/10 15:44:36;;;;;;;8.82;4.75;;;4.30;99.90;;;;;;4864739;29;20481;-70
2020/12/10 15:47:02;;;;;;;8.13;4.60;;;4.50;99.90;;;;;;4868401;29;20085;-70
2020/12/10 15:49:27;;;;;;;6.68;4.00;;;4.70;99.90;;;;;;4860011;29;20041;-70
2020/12/10 15:51:58;;;;;;;6.60;3.90;;;5.10;99.90;;;;;;4866706;29;20064;-70
2020/12/10 15:54:25;;;;;;;5.25;3.63;;;5.60;99.90;;;;;;4867692;29;20068;-70
2020/12/10 15:56:52;;;;;;;8.32;4.32;;;5.90;99.90;;;;;;4869083;29;20053;-70
2020/12/10 15:59:18;;;;;;;6.32;3.72;;;6.20;99.90;;;;;;4864520;29;20040;-70
2020/12/10 16:01:45;;;;;;;8.23;4.80;;;6.30;99.90;;;;;;4862720;29;20087;-70
2020/12/10 16:04:12;;;;;;;8.45;4.80;;;6.50;99.90;;;;;;4865017;29;20078;-70
2020/12/10 16:06:38;;;;;;;5.85;3.92;;;6.20;99.90;;;;;;4866199;29;20021;-69
2020/12/10 16:09:04;;;;;;;8.20;4.32;;;6.20;99.90;;;;;;4862154;29;20094;-70
2020/12/10 16:11:34;;;;;;;10.07;4.47;;;6.30;99.90;;;;;;4860620;29;20029;-69
2020/12/10 16:14:00;;;;;;;12.02;4.40;;;6.60;99.90;;;;;;4860461;29;20064;-70
2020/12/10 16:16:25;;;;;;;9.50;5.07;;;6.80;99.90;;;;;;4870975;29;20033;-70
2020/12/10 16:18:51;;;;;;;7.03;4.07;;;6.80;99.90;;;;;;4863639;29;20427;-70
2020/12/10 16:21:17;;;;;;;8.23;4.50;;;6.90;99.90;;;;;;4864065;29;20025;-70
2020/12/10 16:23:42;;;;;;;6.03;4.32;;;7.10;99.90;;;;;;4863385;29;20045;-70
2020/12/10 16:26:10;;;;;;;8.00;4.13;;;6.90;99.00;;;;;;4861317;29;20022;-70
2020/12/10 16:28:36;;;;;;;8.57;4.15;;;7.00;99.90;;;;;;4867452;29;20058;-70
2020/12/10 16:31:01;;;;;;;7.57;4.00;;;7.10;99.90;;;;;;4862483;29;20093;-71
2020/12/10 16:33:27;;;;;;;7.25;4.20;;;7.20;99.00;;;;;;4864040;29;20063;-71
2020/12/10 16:35:55;;;;;;;8.07;4.57;;;7.30;98.10;;;;;;4860976;29;20026;-71
2020/12/10 16:38:21;;;;;;;9.43;4.90;;;7.20;96.80;;;;;;4862809;29;20133;-71
2020/12/10 16:40:47;;;;;;;8.05;4.65;;;7.20;98.10;;;;;;4860044;29;20041;-71
2020/12/10 16:43:12;;;;;;;6.63;4.47;;;7.00;94.90;;;;;;4863825;29;20026;-69
2020/12/10 16:45:38;;;;;;;10.85;4.97;;;6.40;95.50;;;;;;4862655;29;20029;-69
2020/12/10 16:48:04;;;;;;;6.55;4.55;;;5.90;97.50;;;;;;4863644;29;20495;-69
2020/12/10 16:50:30;;;;;;;6.95;4.40;;;5.80;99.90;;;;;;4867011;29;20040;-70
2020/12/10 16:52:56;;;;;;;7.75;4.85;;;5.80;99.90;;;;;;4862373;29;20363;-70
2020/12/10 16:55:22;;;;;;;7.72;5.03;;;6.10;99.90;;;;;;4862872;29;20438;-72
2020/12/10 16:57:48;;;;;;;8.75;4.75;;;6.50;99.90;;;;;;4858877;29;20034;-73
2020/12/10 17:00:15;;;;;;;9.50;5.60;;;6.70;99.60;;;;;;4882845;29;20025;-73
2020/12/10 17:02:43;;;;;;;7.10;4.53;;;6.60;97.60;;;;;;4864493;29;20064;-75
2020/12/10 17:05:08;;;;;;;9.10;5.85;;;6.90;99.90;;;;;;4868751;29;20131;-78
2020/12/10 17:07:34;;;;;;;10.25;5.30;;;7.40;99.90;;;;;;4875340;29;20121;-79
2020/12/10 17:10:01;;;;;;;10.60;5.15;;;7.00;99.20;;;;;;4883066;29;20033;-79
2020/12/10 17:12:27;;;;;;;10.57;5.40;;;6.60;98.70;;;;;;4873148;29;20033;-79
2020/12/10 17:14:53;;;;;;;10.38;6.10;;;6.10;98.60;;;;;;4871118;29;20090;-78
2020/12/10 17:17:19;;;;;;;12.48;6.40;;;5.70;99.90;;;;;;4872071;29;20061;-78
2020/12/10 17:19:44;;;;;;;12.65;6.80;;;5.30;99.90;;;;;;4875895;29;20076;-79
2020/12/10 17:22:11;;;;;;;10.75;6.72;;;5.00;99.90;;;;;;4879354;29;20090;-78
2020/12/10 17:24:39;;;;;;;12.57;7.30;;;4.90;99.90;;;;;;4877049;29;21916;-78
2020/12/10 17:27:05;;;;;;;14.05;7.25;;;4.70;99.90;;;;;;4868859;29;20120;-78
2020/12/10 17:29:31;;;;;;;12.77;7.13;;;4.60;99.90;;;;;;4859071;29;20049;-78
2020/12/10 17:31:57;;;;;;;10.82;7.32;;;4.50;99.90;;;;;;4875102;29;20094;-78
2020/12/10 17:34:22;;;;;;;13.93;6.80;;;4.40;99.90;;;;;;4871379;29;20036;-77
2020/12/10 17:36:48;;;;;;;11.63;7.38;;;4.90;99.90;;;;;;4868115;29;20028;-77
2020/12/10 17:39:14;;;;;;;12.35;6.60;;;4.80;99.90;;;;;;4875039;29;20030;-77
2020/12/10 17:41:40;;;;;;;14.10;7.30;;;4.40;99.90;;;;;;4865367;29;20029;-74
2020/12/10 17:44:06;;;;;;;15.32;8.13;;;4.20;99.90;;;;;;4867326;29;20526;-73
2020/12/10 17:46:32;;;;;;;15.93;8.27;;;4.20;99.90;;;;;;4871022;29;20033;-73
2020/12/10 17:48:58;;;;;;;11.50;7.05;;;4.00;99.90;;;;;;4879167;29;20039;-73
2020/12/10 17:51:23;;;;;;;17.17;7.93;;;3.90;99.90;;;;;;4872457;29;20643;-74
2020/12/10 17:53:50;;;;;;;13.55;7.70;;;3.80;99.90;;;;;;4871006;29;20121;-74
2020/12/10 17:56:15;;;;;;;15.48;7.50;;;3.70;99.90;;;;;;4889441;29;20029;-74
2020/12/10 17:58:42;;;;;;;14.95;7.53;;;3.60;99.90;;;;;;4878521;29;20107;-73
2020/12/10 18:01:09;;;;;;;18.30;8.57;;;3.60;99.90;;;;;;4872658;29;20016;-74
2020/12/10 18:03:35;;;;;;;12.43;7.18;;;3.50;99.90;;;;;;4870436;29;20105;-74
2020/12/10 18:06:04;;;;;;;14.68;8.05;;;3.40;99.90;;;;;;4873722;29;20029;-73
2020/12/10 18:08:30;;;;;;;15.37;8.53;;;3.40;99.90;;;;;;4868228;29;20089;-73
2020/12/10 18:10:56;;;;;;;16.63;9.40;;;3.30;99.90;;;;;;4880140;29;20499;-73
2020/12/10 18:13:22;;;;;;;15.25;8.27;;;3.30;99.90;;;;;;4885260;29;20485;-74
2020/12/10 18:15:47;;;;;;;15.57;8.10;;;3.20;99.90;;;;;;4875512;29;20024;-73
2020/12/10 18:18:13;;;;;;;15.02;9.10;;;3.20;99.90;;;;;;4879492;29;20029;-72